sensor_id;sensor_type;location;lat;lon;timestamp;pressure;altitude;pressure_sealevel;temperature;humidity
19108;BME280;9686;48.832;9.126;2023-07-13T00:01:58;98107.84;;;24.42;nan
19108;BME280;9686;48.832;9.126;2023-07-13T00:04:24;98109.44;;;24.44;nan
19108;BME280;9686;48.832;9.126;2023-07-13T00:06:50;98110.50;;;24.27;nan
19108;BME280;9686;48.832;9.126;2023-07-13T00:09:17;98109.25;;;24.19;nan
19108;BME280;9686;48.832;9.126;2023-07-13T00:11:43;98103.16;;;24.17;nan
19108;BME280;9686;48.832;9.126;2023-07-13T00:14:09;98106.22;;;24.25;nan
19108;BME280;9686;48.832;9.126;2023-07-13T00:16:37;98104.00;;;24.17;nan
19108;BME280;9686;48.832;9.126;2023-07-13T00:19:03;98106.03;;;24.14;nan
19108;BME280;9686;48.832;9.126;2023-07-13T00:21:29;98094.72;;;24.10;nan
19108;BME280;9686;48.832;9.126;2023-07-13T00:23:55;98094.34;;;24.02;nan
19108;BME280;9686;48.832;9.126;2023-07-13T00:26:20;98098.16;;;23.98;nan
19108;BME280;9686;48.832;9.126;2023-07-13T00:28:45;98090.72;;;23.89;nan
19108;BME280;9686;48.832;9.126;2023-07-13T00:31:12;98087.09;;;23.76;nan
19108;BME280;9686;48.832;9.126;2023-07-13T00:33:39;98088.13;;;23.59;nan
19108;BME280;9686;48.832;9.126;2023-07-13T00:36:05;98089.06;;;23.58;nan
19108;BME280;9686;48.832;9.126;2023-07-13T00:38:31;98084.84;;;23.54;nan
19108;BME280;9686;48.832;9.126;2023-07-13T00:40:56;98084.38;;;23.47;nan
19108;BME280;9686;48.832;9.126;2023-07-13T00:43:26;98091.38;;;23.34;nan
19108;BME280;9686;48.832;9.126;2023-07-13T00:48:25;98086.75;;;23.52;nan
19108;BME280;9686;48.832;9.126;2023-07-13T00:50:53;98085.75;;;23.38;nan
19108;BME280;9686;48.832;9.126;2023-07-13T00:53:21;98093.91;;;23.21;nan
19108;BME280;9686;48.832;9.126;2023-07-13T00:55:50;98091.59;;;23.45;nan
19108;BME280;9686;48.832;9.126;2023-07-13T00:58:16;98091.22;;;23.95;nan
19108;BME280;9686;48.832;9.126;2023-07-13T01:00:42;98080.06;;;23.75;nan
19108;BME280;9686;48.832;9.126;2023-07-13T01:03:07;98088.44;;;23.38;nan
19108;BME280;9686;48.832;9.126;2023-07-13T01:05:34;98091.00;;;23.10;nan
19108;BME280;9686;48.832;9.126;2023-07-13T01:08:01;98099.66;;;23.14;nan
19108;BME280;9686;48.832;9.126;2023-07-13T01:10:27;98109.25;;;22.70;nan
19108;BME280;9686;48.832;9.126;2023-07-13T01:12:54;98093.81;;;22.93;nan
19108;BME280;9686;48.832;9.126;2023-07-13T01:15:40;98101.69;;;22.78;nan
19108;BME280;9686;48.832;9.126;2023-07-13T01:18:12;98102.72;;;22.44;nan
19108;BME280;9686;48.832;9.126;2023-07-13T01:20:39;98108.72;;;22.48;nan
19108;BME280;9686;48.832;9.126;2023-07-13T01:23:10;98102.19;;;22.38;nan
19108;BME280;9686;48.832;9.126;2023-07-13T01:25:36;98106.22;;;22.29;nan
19108;BME280;9686;48.832;9.126;2023-07-13T01:28:07;98108.44;;;22.37;nan
19108;BME280;9686;48.832;9.126;2023-07-13T01:30:35;98105.56;;;22.41;nan
19108;BME280;9686;48.832;9.126;2023-07-13T01:33:00;98106.94;;;22.49;nan
19108;BME280;9686;48.832;9.126;2023-07-13T01:35:26;98112.25;;;22.49;nan
19108;BME280;9686;48.832;9.126;2023-07-13T01:37:52;98114.97;;;22.31;nan
19108;BME280;9686;48.832;9.126;2023-07-13T01:40:18;98116.94;;;22.28;nan
19108;BME280;9686;48.832;9.126;2023-07-13T01:42:44;98120.53;;;22.27;nan
19108;BME280;9686;48.832;9.126;2023-07-13T01:45:09;98121.28;;;22.13;nan
19108;BME280;9686;48.832;9.126;2023-07-13T01:47:34;98127.31;;;21.99;nan
19108;BME280;9686;48.832;9.126;2023-07-13T01:50:00;98119.19;;;21.85;nan
19108;BME280;9686;48.832;9.126;2023-07-13T01:52:25;98115.94;;;21.80;nan
19108;BME280;9686;48.832;9.126;2023-07-13T01:54:50;98119.84;;;21.90;nan
19108;BME280;9686;48.832;9.126;2023-07-13T01:57:16;98117.22;;;22.06;nan
19108;BME280;9686;48.832;9.126;2023-07-13T01:59:41;98118.00;;;21.58;nan
19108;BME280;9686;48.832;9.126;2023-07-13T02:02:06;98128.81;;;21.88;nan
19108;BME280;9686;48.832;9.126;2023-07-13T02:04:32;98122.75;;;22.01;nan
19108;BME280;9686;48.832;9.126;2023-07-13T02:06:57;98127.38;;;22.31;nan
19108;BME280;9686;48.832;9.126;2023-07-13T02:09:22;98124.47;;;22.35;nan
19108;BME280;9686;48.832;9.126;2023-07-13T02:11:48;98129.47;;;22.41;nan
19108;BME280;9686;48.832;9.126;2023-07-13T02:14:14;98132.38;;;22.53;nan
19108;BME280;9686;48.832;9.126;2023-07-13T02:16:41;98133.97;;;21.91;nan
19108;BME280;9686;48.832;9.126;2023-07-13T02:19:07;98129.41;;;22.10;nan
19108;BME280;9686;48.832;9.126;2023-07-13T02:21:32;98129.25;;;22.13;nan
19108;BME280;9686;48.832;9.126;2023-07-13T02:23:57;98129.44;;;22.26;nan
19108;BME280;9686;48.832;9.126;2023-07-13T02:26:23;98127.91;;;21.54;nan
19108;BME280;9686;48.832;9.126;2023-07-13T02:28:48;98130.84;;;21.82;nan
19108;BME280;9686;48.832;9.126;2023-07-13T02:31:15;98133.56;;;21.98;nan
19108;BME280;9686;48.832;9.126;2023-07-13T02:33:41;98132.53;;;22.01;nan
19108;BME280;9686;48.832;9.126;2023-07-13T02:36:06;98130.25;;;22.10;nan
19108;BME280;9686;48.832;9.126;2023-07-13T02:38:33;98127.09;;;22.04;nan
19108;BME280;9686;48.832;9.126;2023-07-13T02:41:00;98137.06;;;21.99;nan
19108;BME280;9686;48.832;9.126;2023-07-13T02:43:25;98142.69;;;22.10;nan
19108;BME280;9686;48.832;9.126;2023-07-13T02:45:50;98145.34;;;21.93;nan
19108;BME280;9686;48.832;9.126;2023-07-13T02:48:16;98149.72;;;21.94;nan
19108;BME280;9686;48.832;9.126;2023-07-13T02:50:41;98148.00;;;21.93;nan
19108;BME280;9686;48.832;9.126;2023-07-13T02:53:07;98148.59;;;21.65;nan
19108;BME280;9686;48.832;9.126;2023-07-13T02:55:32;98149.06;;;21.73;nan
19108;BME280;9686;48.832;9.126;2023-07-13T02:57:57;98141.06;;;21.90;nan
19108;BME280;9686;48.832;9.126;2023-07-13T03:00:23;98142.56;;;21.27;nan
19108;BME280;9686;48.832;9.126;2023-07-13T03:02:48;98150.53;;;21.27;nan
19108;BME280;9686;48.832;9.126;2023-07-13T03:05:14;98145.94;;;21.30;nan
19108;BME280;9686;48.832;9.126;2023-07-13T03:07:41;98151.50;;;21.60;nan
19108;BME280;9686;48.832;9.126;2023-07-13T03:10:07;98158.13;;;21.69;nan
19108;BME280;9686;48.832;9.126;2023-07-13T03:12:33;98160.06;;;21.65;nan
19108;BME280;9686;48.832;9.126;2023-07-13T03:14:58;98163.00;;;21.59;nan
19108;BME280;9686;48.832;9.126;2023-07-13T03:17:24;98170.00;;;21.62;nan
19108;BME280;9686;48.832;9.126;2023-07-13T03:19:49;98172.56;;;21.10;nan
19108;BME280;9686;48.832;9.126;2023-07-13T03:22:19;98173.25;;;20.77;nan
19108;BME280;9686;48.832;9.126;2023-07-13T03:24:45;98160.09;;;21.12;nan
19108;BME280;9686;48.832;9.126;2023-07-13T03:27:11;98171.84;;;21.42;nan
19108;BME280;9686;48.832;9.126;2023-07-13T03:29:36;98172.88;;;21.40;nan
19108;BME280;9686;48.832;9.126;2023-07-13T03:32:02;98176.34;;;21.58;nan
19108;BME280;9686;48.832;9.126;2023-07-13T03:34:27;98184.41;;;21.56;nan
19108;BME280;9686;48.832;9.126;2023-07-13T03:36:55;98182.06;;;21.50;nan
19108;BME280;9686;48.832;9.126;2023-07-13T03:39:21;98188.69;;;21.41;nan
19108;BME280;9686;48.832;9.126;2023-07-13T03:41:46;98199.31;;;21.41;nan
19108;BME280;9686;48.832;9.126;2023-07-13T03:44:12;98193.16;;;21.41;nan
19108;BME280;9686;48.832;9.126;2023-07-13T03:46:37;98196.50;;;21.08;nan
19108;BME280;9686;48.832;9.126;2023-07-13T03:49:04;98197.84;;;21.17;nan
19108;BME280;9686;48.832;9.126;2023-07-13T03:51:29;98198.34;;;21.25;nan
19108;BME280;9686;48.832;9.126;2023-07-13T03:53:55;98199.13;;;21.27;nan
19108;BME280;9686;48.832;9.126;2023-07-13T03:56:21;98201.50;;;21.68;nan
19108;BME280;9686;48.832;9.126;2023-07-13T03:58:48;98208.06;;;21.61;nan
19108;BME280;9686;48.832;9.126;2023-07-13T04:01:16;98205.94;;;21.50;nan
19108;BME280;9686;48.832;9.126;2023-07-13T04:03:42;98204.59;;;21.59;nan
19108;BME280;9686;48.832;9.126;2023-07-13T04:06:14;98210.72;;;21.61;nan
19108;BME280;9686;48.832;9.126;2023-07-13T04:08:40;98197.50;;;21.76;nan
19108;BME280;9686;48.832;9.126;2023-07-13T04:11:06;98204.06;;;21.69;nan
19108;BME280;9686;48.832;9.126;2023-07-13T04:13:31;98205.06;;;21.84;nan
19108;BME280;9686;48.832;9.126;2023-07-13T04:15:57;98215.00;;;21.80;nan
19108;BME280;9686;48.832;9.126;2023-07-13T04:18:22;98208.44;;;21.88;nan
19108;BME280;9686;48.832;9.126;2023-07-13T04:20:49;98213.28;;;21.97;nan
19108;BME280;9686;48.832;9.126;2023-07-13T04:23:15;98209.94;;;21.93;nan
19108;BME280;9686;48.832;9.126;2023-07-13T04:25:44;98206.00;;;21.83;nan
19108;BME280;9686;48.832;9.126;2023-07-13T04:28:09;98216.16;;;22.09;nan
19108;BME280;9686;48.832;9.126;2023-07-13T04:30:34;98212.44;;;22.13;nan
19108;BME280;9686;48.832;9.126;2023-07-13T04:33:00;98217.69;;;22.31;nan
19108;BME280;9686;48.832;9.126;2023-07-13T04:35:25;98204.56;;;22.28;nan
19108;BME280;9686;48.832;9.126;2023-07-13T04:37:50;98215.19;;;22.28;nan
19108;BME280;9686;48.832;9.126;2023-07-13T04:40:17;98213.38;;;22.12;nan
19108;BME280;9686;48.832;9.126;2023-07-13T04:42:43;98213.03;;;21.84;nan
19108;BME280;9686;48.832;9.126;2023-07-13T04:45:09;98212.97;;;22.20;nan
19108;BME280;9686;48.832;9.126;2023-07-13T04:47:35;98216.53;;;22.02;nan
19108;BME280;9686;48.832;9.126;2023-07-13T04:50:00;98229.13;;;21.98;nan
19108;BME280;9686;48.832;9.126;2023-07-13T04:52:26;98225.94;;;21.92;nan
19108;BME280;9686;48.832;9.126;2023-07-13T04:54:51;98226.31;;;21.84;nan
19108;BME280;9686;48.832;9.126;2023-07-13T04:57:16;98226.47;;;21.81;nan
19108;BME280;9686;48.832;9.126;2023-07-13T04:59:41;98226.00;;;21.73;nan
19108;BME280;9686;48.832;9.126;2023-07-13T05:02:07;98226.00;;;21.73;nan
19108;BME280;9686;48.832;9.126;2023-07-13T05:04:33;98231.16;;;21.76;nan
19108;BME280;9686;48.832;9.126;2023-07-13T05:06:59;98229.53;;;21.73;nan
19108;BME280;9686;48.832;9.126;2023-07-13T05:09:24;98226.72;;;21.94;nan
19108;BME280;9686;48.832;9.126;2023-07-13T05:11:50;98223.38;;;21.90;nan
19108;BME280;9686;48.832;9.126;2023-07-13T05:14:15;98232.09;;;22.09;nan
19108;BME280;9686;48.832;9.126;2023-07-13T05:16:41;98232.56;;;22.18;nan
19108;BME280;9686;48.832;9.126;2023-07-13T05:19:07;98230.88;;;22.32;nan
19108;BME280;9686;48.832;9.126;2023-07-13T05:21:33;98237.91;;;22.33;nan
19108;BME280;9686;48.832;9.126;2023-07-13T05:23:58;98239.94;;;22.61;nan
19108;BME280;9686;48.832;9.126;2023-07-13T05:26:23;98238.97;;;22.80;nan
19108;BME280;9686;48.832;9.126;2023-07-13T05:28:49;98239.19;;;22.92;nan
19108;BME280;9686;48.832;9.126;2023-07-13T05:31:14;98237.69;;;22.71;nan
19108;BME280;9686;48.832;9.126;2023-07-13T05:33:39;98239.22;;;22.75;nan
19108;BME280;9686;48.832;9.126;2023-07-13T05:36:05;98232.38;;;23.34;nan
19108;BME280;9686;48.832;9.126;2023-07-13T05:38:31;98230.56;;;23.34;nan
19108;BME280;9686;48.832;9.126;2023-07-13T05:40:56;98231.69;;;23.30;nan
19108;BME280;9686;48.832;9.126;2023-07-13T05:43:22;98230.16;;;23.26;nan
19108;BME280;9686;48.832;9.126;2023-07-13T05:45:48;98234.03;;;23.21;nan
19108;BME280;9686;48.832;9.126;2023-07-13T05:48:14;98227.38;;;22.81;nan
19108;BME280;9686;48.832;9.126;2023-07-13T05:50:40;98243.19;;;22.84;nan
19108;BME280;9686;48.832;9.126;2023-07-13T05:53:05;98243.56;;;22.93;nan
19108;BME280;9686;48.832;9.126;2023-07-13T05:55:30;98251.78;;;23.04;nan
19108;BME280;9686;48.832;9.126;2023-07-13T05:57:56;98250.75;;;23.07;nan
19108;BME280;9686;48.832;9.126;2023-07-13T06:00:23;98256.66;;;23.12;nan
19108;BME280;9686;48.832;9.126;2023-07-13T06:02:48;98252.81;;;23.33;nan
19108;BME280;9686;48.832;9.126;2023-07-13T06:05:14;98257.34;;;23.47;nan
19108;BME280;9686;48.832;9.126;2023-07-13T06:07:39;98255.81;;;23.59;nan
19108;BME280;9686;48.832;9.126;2023-07-13T06:10:05;98250.28;;;23.62;nan
19108;BME280;9686;48.832;9.126;2023-07-13T06:12:30;98264.88;;;23.55;nan
19108;BME280;9686;48.832;9.126;2023-07-13T06:14:55;98259.91;;;23.49;nan
19108;BME280;9686;48.832;9.126;2023-07-13T06:17:21;98266.63;;;23.56;nan
19108;BME280;9686;48.832;9.126;2023-07-13T06:19:46;98266.44;;;23.59;nan
19108;BME280;9686;48.832;9.126;2023-07-13T06:22:12;98267.53;;;23.55;nan
19108;BME280;9686;48.832;9.126;2023-07-13T06:24:37;98267.03;;;23.64;nan
19108;BME280;9686;48.832;9.126;2023-07-13T06:27:02;98282.34;;;23.60;nan
19108;BME280;9686;48.832;9.126;2023-07-13T06:29:28;98280.16;;;23.67;nan
19108;BME280;9686;48.832;9.126;2023-07-13T06:31:53;98278.34;;;23.67;nan
19108;BME280;9686;48.832;9.126;2023-07-13T06:34:18;98285.34;;;23.70;nan
19108;BME280;9686;48.832;9.126;2023-07-13T06:36:44;98283.28;;;23.89;nan
19108;BME280;9686;48.832;9.126;2023-07-13T06:39:09;98286.81;;;23.90;nan
19108;BME280;9686;48.832;9.126;2023-07-13T06:41:34;98282.50;;;24.03;nan
19108;BME280;9686;48.832;9.126;2023-07-13T06:44:00;98292.50;;;24.14;nan
19108;BME280;9686;48.832;9.126;2023-07-13T06:46:26;98292.97;;;24.06;nan
19108;BME280;9686;48.832;9.126;2023-07-13T06:48:53;98294.22;;;24.15;nan
19108;BME280;9686;48.832;9.126;2023-07-13T06:51:18;98299.53;;;24.31;nan
19108;BME280;9686;48.832;9.126;2023-07-13T06:53:43;98303.06;;;24.31;nan
19108;BME280;9686;48.832;9.126;2023-07-13T06:56:10;98297.25;;;24.39;nan
19108;BME280;9686;48.832;9.126;2023-07-13T06:58:36;98304.50;;;24.51;nan
19108;BME280;9686;48.832;9.126;2023-07-13T07:01:01;98308.75;;;24.39;nan
19108;BME280;9686;48.832;9.126;2023-07-13T07:03:27;98306.41;;;24.49;nan
19108;BME280;9686;48.832;9.126;2023-07-13T07:05:52;98308.13;;;24.50;nan
19108;BME280;9686;48.832;9.126;2023-07-13T07:08:18;98308.72;;;24.25;nan
19108;BME280;9686;48.832;9.126;2023-07-13T07:10:43;98309.63;;;24.40;nan
19108;BME280;9686;48.832;9.126;2023-07-13T07:13:09;98304.19;;;24.41;nan
19108;BME280;9686;48.832;9.126;2023-07-13T07:15:35;98299.16;;;24.37;nan
19108;BME280;9686;48.832;9.126;2023-07-13T07:18:00;98302.81;;;24.50;nan
19108;BME280;9686;48.832;9.126;2023-07-13T07:20:26;98309.56;;;24.55;nan
19108;BME280;9686;48.832;9.126;2023-07-13T07:22:52;98312.13;;;24.57;nan
19108;BME280;9686;48.832;9.126;2023-07-13T07:25:18;98315.13;;;24.37;nan
19108;BME280;9686;48.832;9.126;2023-07-13T07:27:43;98309.13;;;24.33;nan
19108;BME280;9686;48.832;9.126;2023-07-13T07:30:09;98311.75;;;24.63;nan
19108;BME280;9686;48.832;9.126;2023-07-13T07:32:35;98306.88;;;24.55;nan
19108;BME280;9686;48.832;9.126;2023-07-13T07:35:00;98308.31;;;24.47;nan
19108;BME280;9686;48.832;9.126;2023-07-13T07:37:26;98303.22;;;24.28;nan
19108;BME280;9686;48.832;9.126;2023-07-13T07:39:51;98308.22;;;24.48;nan
19108;BME280;9686;48.832;9.126;2023-07-13T07:42:16;98299.66;;;24.72;nan
19108;BME280;9686;48.832;9.126;2023-07-13T07:44:42;98314.75;;;24.43;nan
19108;BME280;9686;48.832;9.126;2023-07-13T07:47:08;98307.16;;;24.65;nan
19108;BME280;9686;48.832;9.126;2023-07-13T07:49:34;98300.34;;;24.75;nan
19108;BME280;9686;48.832;9.126;2023-07-13T07:52:00;98313.56;;;24.77;nan
19108;BME280;9686;48.832;9.126;2023-07-13T07:54:25;98304.13;;;25.14;nan
19108;BME280;9686;48.832;9.126;2023-07-13T07:56:50;98309.84;;;25.22;nan
19108;BME280;9686;48.832;9.126;2023-07-13T07:59:16;98302.97;;;25.32;nan
19108;BME280;9686;48.832;9.126;2023-07-13T08:01:42;98306.25;;;25.09;nan
19108;BME280;9686;48.832;9.126;2023-07-13T08:04:08;98312.44;;;25.09;nan
19108;BME280;9686;48.832;9.126;2023-07-13T08:06:34;98311.94;;;25.31;nan
19108;BME280;9686;48.832;9.126;2023-07-13T08:09:00;98312.41;;;25.38;nan
19108;BME280;9686;48.832;9.126;2023-07-13T08:11:26;98319.84;;;25.33;nan
19108;BME280;9686;48.832;9.126;2023-07-13T08:13:51;98317.97;;;25.47;nan
19108;BME280;9686;48.832;9.126;2023-07-13T08:16:17;98315.09;;;25.65;nan
19108;BME280;9686;48.832;9.126;2023-07-13T08:18:42;98320.09;;;25.42;nan
19108;BME280;9686;48.832;9.126;2023-07-13T08:21:08;98318.34;;;25.29;nan
19108;BME280;9686;48.832;9.126;2023-07-13T08:23:34;98317.31;;;25.58;nan
19108;BME280;9686;48.832;9.126;2023-07-13T08:26:00;98314.97;;;25.39;nan
19108;BME280;9686;48.832;9.126;2023-07-13T08:28:27;98313.50;;;25.48;nan
19108;BME280;9686;48.832;9.126;2023-07-13T08:30:52;98314.91;;;25.68;nan
19108;BME280;9686;48.832;9.126;2023-07-13T08:33:19;98307.72;;;25.83;nan
19108;BME280;9686;48.832;9.126;2023-07-13T08:35:48;98312.41;;;25.79;nan
19108;BME280;9686;48.832;9.126;2023-07-13T08:38:13;98316.38;;;25.86;nan
19108;BME280;9686;48.832;9.126;2023-07-13T08:40:39;98318.00;;;26.01;nan
19108;BME280;9686;48.832;9.126;2023-07-13T08:43:17;98300.19;;;26.15;nan
19108;BME280;9686;48.832;9.126;2023-07-13T08:45:57;98312.28;;;26.07;nan
19108;BME280;9686;48.832;9.126;2023-07-13T08:48:35;98319.75;;;26.15;nan
19108;BME280;9686;48.832;9.126;2023-07-13T08:51:16;98317.78;;;26.31;nan
19108;BME280;9686;48.832;9.126;2023-07-13T08:53:49;98317.16;;;26.40;nan
19108;BME280;9686;48.832;9.126;2023-07-13T08:56:35;98318.56;;;26.46;nan
19108;BME280;9686;48.832;9.126;2023-07-13T08:59:06;98322.13;;;26.59;nan
19108;BME280;9686;48.832;9.126;2023-07-13T09:01:54;98319.31;;;26.61;nan
19108;BME280;9686;48.832;9.126;2023-07-13T09:04:34;98325.84;;;26.69;nan
19108;BME280;9686;48.832;9.126;2023-07-13T09:07:11;98313.22;;;26.59;nan
19108;BME280;9686;48.832;9.126;2023-07-13T09:10:04;98324.47;;;26.89;nan
19108;BME280;9686;48.832;9.126;2023-07-13T09:12:35;98324.44;;;26.77;nan
19108;BME280;9686;48.832;9.126;2023-07-13T09:15:05;98324.66;;;26.73;nan
19108;BME280;9686;48.832;9.126;2023-07-13T09:17:49;98312.78;;;26.78;nan
19108;BME280;9686;48.832;9.126;2023-07-13T09:20:23;98324.34;;;26.65;nan
19108;BME280;9686;48.832;9.126;2023-07-13T09:22:50;98321.03;;;26.87;nan
19108;BME280;9686;48.832;9.126;2023-07-13T09:25:34;98321.66;;;26.91;nan
19108;BME280;9686;48.832;9.126;2023-07-13T09:28:12;98322.31;;;26.94;nan
19108;BME280;9686;48.832;9.126;2023-07-13T09:30:43;98318.88;;;27.05;nan
19108;BME280;9686;48.832;9.126;2023-07-13T09:33:10;98324.00;;;26.95;nan
19108;BME280;9686;48.832;9.126;2023-07-13T09:35:35;98317.59;;;26.72;nan
19108;BME280;9686;48.832;9.126;2023-07-13T09:38:18;98324.47;;;26.64;nan
19108;BME280;9686;48.832;9.126;2023-07-13T09:41:05;98321.13;;;26.48;nan
19108;BME280;9686;48.832;9.126;2023-07-13T09:43:34;98319.00;;;26.91;nan
19108;BME280;9686;48.832;9.126;2023-07-13T09:46:00;98315.91;;;26.84;nan
19108;BME280;9686;48.832;9.126;2023-07-13T09:48:34;98321.03;;;27.13;nan
19108;BME280;9686;48.832;9.126;2023-07-13T09:51:07;98321.78;;;27.15;nan
19108;BME280;9686;48.832;9.126;2023-07-13T09:53:37;98313.19;;;27.22;nan
19108;BME280;9686;48.832;9.126;2023-07-13T09:56:03;98322.31;;;27.20;nan
19108;BME280;9686;48.832;9.126;2023-07-13T09:58:30;98314.66;;;27.39;nan
19108;BME280;9686;48.832;9.126;2023-07-13T10:01:02;98312.09;;;27.38;nan
19108;BME280;9686;48.832;9.126;2023-07-13T10:03:31;98318.03;;;27.54;nan
19108;BME280;9686;48.832;9.126;2023-07-13T10:06:17;98305.41;;;27.80;nan
19108;BME280;9686;48.832;9.126;2023-07-13T10:08:47;98308.94;;;27.80;nan
19108;BME280;9686;48.832;9.126;2023-07-13T10:11:20;98304.75;;;27.89;nan
19108;BME280;9686;48.832;9.126;2023-07-13T10:13:51;98308.56;;;28.33;nan
19108;BME280;9686;48.832;9.126;2023-07-13T10:16:19;98307.56;;;28.69;nan
19108;BME280;9686;48.832;9.126;2023-07-13T10:18:56;98302.88;;;28.37;nan
19108;BME280;9686;48.832;9.126;2023-07-13T10:21:27;98303.44;;;28.06;nan
19108;BME280;9686;48.832;9.126;2023-07-13T10:24:04;98299.22;;;28.14;nan
19108;BME280;9686;48.832;9.126;2023-07-13T10:26:33;98315.09;;;28.17;nan
19108;BME280;9686;48.832;9.126;2023-07-13T10:29:04;98302.16;;;28.11;nan
19108;BME280;9686;48.832;9.126;2023-07-13T10:31:32;98302.28;;;28.45;nan
19108;BME280;9686;48.832;9.126;2023-07-13T10:33:59;98299.56;;;28.10;nan
19108;BME280;9686;48.832;9.126;2023-07-13T10:36:54;98298.50;;;28.12;nan
19108;BME280;9686;48.832;9.126;2023-07-13T10:39:24;98307.41;;;28.59;nan
19108;BME280;9686;48.832;9.126;2023-07-13T10:41:54;98304.38;;;28.75;nan
19108;BME280;9686;48.832;9.126;2023-07-13T10:44:28;98309.75;;;28.64;nan
19108;BME280;9686;48.832;9.126;2023-07-13T10:47:00;98301.91;;;28.61;nan
19108;BME280;9686;48.832;9.126;2023-07-13T10:49:28;98305.88;;;28.33;nan
19108;BME280;9686;48.832;9.126;2023-07-13T10:51:53;98309.22;;;28.59;nan
19108;BME280;9686;48.832;9.126;2023-07-13T10:54:28;98304.97;;;28.56;nan
19108;BME280;9686;48.832;9.126;2023-07-13T10:57:17;98293.00;;;28.60;nan
19108;BME280;9686;48.832;9.126;2023-07-13T10:59:49;98302.19;;;28.80;nan
19108;BME280;9686;48.832;9.126;2023-07-13T11:02:28;98297.66;;;28.58;nan
19108;BME280;9686;48.832;9.126;2023-07-13T11:04:55;98295.25;;;29.11;nan
19108;BME280;9686;48.832;9.126;2023-07-13T11:07:30;98291.38;;;28.93;nan
19108;BME280;9686;48.832;9.126;2023-07-13T11:09:59;98282.94;;;29.20;nan
19108;BME280;9686;48.832;9.126;2023-07-13T11:17:54;98282.69;;;29.45;nan
19108;BME280;9686;48.832;9.126;2023-07-13T11:20:32;98285.84;;;29.50;nan
19108;BME280;9686;48.832;9.126;2023-07-13T11:25:41;98281.69;;;29.35;nan
19108;BME280;9686;48.832;9.126;2023-07-13T11:35:49;98271.84;;;29.02;nan
19108;BME280;9686;48.832;9.126;2023-07-13T11:38:19;98272.44;;;29.16;nan
19108;BME280;9686;48.832;9.126;2023-07-13T11:40:46;98278.53;;;29.41;nan
19108;BME280;9686;48.832;9.126;2023-07-13T11:43:14;98272.38;;;29.39;nan
19108;BME280;9686;48.832;9.126;2023-07-13T11:45:41;98267.50;;;29.44;nan
19108;BME280;9686;48.832;9.126;2023-07-13T11:48:26;98265.22;;;29.51;nan
19108;BME280;9686;48.832;9.126;2023-07-13T11:50:54;98260.50;;;29.64;nan
19108;BME280;9686;48.832;9.126;2023-07-13T11:53:21;98265.03;;;30.48;nan
19108;BME280;9686;48.832;9.126;2023-07-13T11:55:47;98259.25;;;32.21;nan
19108;BME280;9686;48.832;9.126;2023-07-13T11:58:17;98258.84;;;33.47;nan
19108;BME280;9686;48.832;9.126;2023-07-13T12:00:44;98266.28;;;35.04;nan
19108;BME280;9686;48.832;9.126;2023-07-13T12:03:11;98264.59;;;36.44;nan
19108;BME280;9686;48.832;9.126;2023-07-13T12:05:37;98266.13;;;35.47;nan
19108;BME280;9686;48.832;9.126;2023-07-13T12:08:09;98264.59;;;34.51;nan
19108;BME280;9686;48.832;9.126;2023-07-13T12:10:36;98272.81;;;34.23;nan
19108;BME280;9686;48.832;9.126;2023-07-13T12:13:05;98276.59;;;34.48;nan
19108;BME280;9686;48.832;9.126;2023-07-13T12:15:42;98265.19;;;33.83;nan
19108;BME280;9686;48.832;9.126;2023-07-13T12:18:14;98266.66;;;33.32;nan
19108;BME280;9686;48.832;9.126;2023-07-13T12:20:39;98270.91;;;32.98;nan
19108;BME280;9686;48.832;9.126;2023-07-13T12:23:06;98270.94;;;32.78;nan
19108;BME280;9686;48.832;9.126;2023-07-13T12:25:40;98268.78;;;32.26;nan
19108;BME280;9686;48.832;9.126;2023-07-13T12:28:28;98277.44;;;31.90;nan
19108;BME280;9686;48.832;9.126;2023-07-13T12:30:59;98267.09;;;31.76;nan
19108;BME280;9686;48.832;9.126;2023-07-13T12:33:28;98275.78;;;31.30;nan
19108;BME280;9686;48.832;9.126;2023-07-13T12:35:53;98270.63;;;31.17;nan
19108;BME280;9686;48.832;9.126;2023-07-13T12:38:19;98270.16;;;31.12;nan
19108;BME280;9686;48.832;9.126;2023-07-13T12:40:50;98265.72;;;31.02;nan
19108;BME280;9686;48.832;9.126;2023-07-13T12:43:16;98272.25;;;30.99;nan
19108;BME280;9686;48.832;9.126;2023-07-13T12:46:02;98275.66;;;31.01;nan
19108;BME280;9686;48.832;9.126;2023-07-13T12:48:28;98274.00;;;30.58;nan
19108;BME280;9686;48.832;9.126;2023-07-13T12:50:55;98271.38;;;30.47;nan
19108;BME280;9686;48.832;9.126;2023-07-13T12:53:23;98266.88;;;30.48;nan
19108;BME280;9686;48.832;9.126;2023-07-13T12:55:50;98258.75;;;30.68;nan
19108;BME280;9686;48.832;9.126;2023-07-13T12:58:26;98258.66;;;31.10;nan
19108;BME280;9686;48.832;9.126;2023-07-13T13:00:54;98264.50;;;30.75;nan
19108;BME280;9686;48.832;9.126;2023-07-13T13:05:49;98258.97;;;30.56;nan
19108;BME280;9686;48.832;9.126;2023-07-13T13:08:14;98266.94;;;30.88;nan
19108;BME280;9686;48.832;9.126;2023-07-13T13:10:40;98259.84;;;30.87;nan
19108;BME280;9686;48.832;9.126;2023-07-13T13:13:05;98257.78;;;31.00;nan
19108;BME280;9686;48.832;9.126;2023-07-13T13:15:31;98258.31;;;30.63;nan
19108;BME280;9686;48.832;9.126;2023-07-13T13:17:56;98264.09;;;30.38;nan
19108;BME280;9686;48.832;9.126;2023-07-13T13:20:24;98258.53;;;30.30;nan
19108;BME280;9686;48.832;9.126;2023-07-13T13:22:50;98262.72;;;30.23;nan
19108;BME280;9686;48.832;9.126;2023-07-13T13:25:16;98263.63;;;30.12;nan
19108;BME280;9686;48.832;9.126;2023-07-13T13:27:42;98266.72;;;30.28;nan
19108;BME280;9686;48.832;9.126;2023-07-13T13:30:12;98262.53;;;30.35;nan
19108;BME280;9686;48.832;9.126;2023-07-13T13:32:41;98256.47;;;30.64;nan
19108;BME280;9686;48.832;9.126;2023-07-13T13:35:18;98253.19;;;30.91;nan
19108;BME280;9686;48.832;9.126;2023-07-13T13:37:45;98253.59;;;30.77;nan
19108;BME280;9686;48.832;9.126;2023-07-13T13:40:16;98247.25;;;30.87;nan
19108;BME280;9686;48.832;9.126;2023-07-13T13:42:42;98249.41;;;30.63;nan
19108;BME280;9686;48.832;9.126;2023-07-13T13:45:11;98261.34;;;30.49;nan
19108;BME280;9686;48.832;9.126;2023-07-13T13:47:43;98254.84;;;30.31;nan
19108;BME280;9686;48.832;9.126;2023-07-13T13:50:17;98245.94;;;30.30;nan
19108;BME280;9686;48.832;9.126;2023-07-13T13:52:43;98250.38;;;30.41;nan
19108;BME280;9686;48.832;9.126;2023-07-13T13:55:13;98239.03;;;30.37;nan
19108;BME280;9686;48.832;9.126;2023-07-13T13:57:39;98240.00;;;30.36;nan